Nepheli — 3FNC5 — position and weather

sailwx.info

Track history (hours):
 
Tides and Currents Weather Stations Pressure Air Temp Water Temp Dewpoint Dewpoint Depression Visibility Wind Speed Wind Dir Waves Ship Positions

Nepheli

Last reported at 2014-Jul-23 07:14 UTC. Time now 2014-Oct-23 09:38 UTC.
Position N 36°10' E 025°11'.
Warning: this ship's position is months out of date.

Length 90 m; draft 4.3 m.

Type: Tanker. MMSI: 370679000.

Date/timePositionNaut miles runAvg speedWind from/ knotsBaromVisibWave heightAir tempDewpointWater temp
2014-Jul-23 07:14N 36°10' E 025°11'6 8.7
2014-Jul-23 06:32N 36°12' E 025°04'9 8.9
2014-Jul-23 05:30N 36°16' E 024°54'8 8.8
2014-Jul-23 04:33N 36°20' E 024°45'9 8.5
2014-Jul-23 03:33N 36°24' E 024°36'8 8.6
2014-Jul-23 02:34N 36°29' E 024°27'9 8.9
2014-Jul-23 01:34N 36°34' E 024°18'9 8.0
2014-Jul-23 00:24N 36°42' E 024°11'8 7.9
2014-Jul-22 23:27N 36°49' E 024°08'7 8.2
2014-Jul-22 22:34N 36°56' E 024°05'8 8.2
2014-Jul-22 21:33N 37°03' E 024°02'8 8.0
2014-Jul-22 20:31N 37°11' E 023°58'9 8.9
2014-Jul-22 19:32N 37°20' E 023°55'21 8.9
2014-Jul-22 17:12N 37°38' E 023°43'6 8.7
2014-Jul-22 16:28N 37°44' E 023°40'7 8.3
2014-Jul-22 15:34N 37°51' E 023°36'7 6.9
2014-Jul-22 14:34N 37°57' E 023°33'5 2.1
2014-Jul-22 12:23N 38°02' E 023°32'0 0.0
2014-Jul-22 10:17N 38°02' E 023°32'0 0.0
2014-Jul-22 09:29N 38°02' E 023°32'0 0.0
2014-Jul-22 08:22N 38°02' E 023°32'0 0.0
2014-Jul-22 06:13N 38°02' E 023°32'0 0.0
2014-Jul-22 05:28N 38°02' E 023°32'0 0.0
2014-Jul-22 02:25N 38°02' E 023°32'0 0.0
2014-Jul-22 01:28N 38°02' E 023°32'0 0.0
2014-Jul-21 13:28N 38°02' E 023°32'0 0.1
2014-Jul-21 12:22N 38°02' E 023°32'0 0.0
2014-Jul-21 10:19N 38°02' E 023°32'0 0.0
2014-Jul-21 08:19N 38°02' E 023°32'0 0.0
2014-Jul-21 07:07N 38°02' E 023°32'0 0.0
2014-Jul-19 13:05N 38°02' E 023°32'0 0.1
2014-Jul-19 12:32N 38°02' E 023°32'0 0.1
2014-Jul-19 11:32N 38°02' E 023°32'0 0.0
2014-Jul-19 09:32N 38°02' E 023°32'0 0.0
2014-Jul-19 01:32N 38°02' E 023°32'0 0.0
2014-Jul-19 00:26N 38°02' E 023°32'0 0.0
2014-Jul-18 21:25N 38°02' E 023°32'0 0.0
2014-Jul-18 20:04N 38°02' E 023°32'0 0.0
2014-Jul-18 17:29N 38°02' E 023°32'3 3.4
2014-Jul-18 16:33N 38°02' E 023°36'0 0.0
2014-Jul-18 11:18N 38°02' E 023°36'0 0.0
2014-Jul-18 00:27N 38°02' E 023°36'0 0.0
2014-Jul-17 21:29N 38°02' E 023°36'0 0.0
2014-Jul-17 19:26N 38°02' E 023°36'0 0.0
2014-Jul-17 18:32N 38°02' E 023°36'0 0.0
2014-Jul-17 17:20N 38°02' E 023°36'0 0.0
2014-Jul-17 16:14N 38°02' E 023°36'2 2.4
2014-Jul-17 15:33N 38°02' E 023°34'1 0.9
2014-Jul-17 14:16N 38°02' E 023°32'0 0.0
2014-Jul-17 11:31N 38°02' E 023°32'0 0.0
2014-Jul-17 09:07N 38°02' E 023°32'0 0.0
2014-Jul-17 07:10N 38°02' E 023°32'0 0.0
2014-Jul-17 02:07N 38°02' E 023°32'0 0.0
2014-Jul-16 22:19N 38°02' E 023°32'0 0.0
2014-Jul-16 19:28N 38°02' E 023°32'0 0.0
2014-Jul-16 14:25N 38°02' E 023°32'0 0.0
2014-Jul-16 07:14N 38°02' E 023°32'0 0.0
2014-Jul-16 06:16N 38°02' E 023°32'5 7.1
2014-Jul-16 05:33N 37°57' E 023°35'2 1.9
2014-Jul-16 04:33N 37°55' E 023°33'0 0.0
2014-Jul-16 03:33N 37°55' E 023°33'0 0.0
2014-Jul-16 02:33N 37°55' E 023°33'0 0.0
2014-Jul-16 01:33N 37°55' E 023°33'0 0.0
2014-Jul-16 00:33N 37°55' E 023°33'0 0.0
2014-Jul-15 23:30N 37°55' E 023°33'0 0.1
2014-Jul-15 22:33N 37°55' E 023°33'6 5.8
2014-Jul-15 21:33N 37°52' E 023°39'9 9.4
2014-Jul-15 20:33N 37°43' E 023°44'62 9.8
2014-Jul-15 14:14N 36°45' E 024°11'7 9.9
2014-Jul-15 13:31N 36°39' E 024°14'9 9.1
2014-Jul-15 12:33N 36°32' E 024°22'9 9.0
2014-Jul-15 11:33N 36°27' E 024°31'9 8.9
2014-Jul-15 10:33N 36°23' E 024°40'9 8.7
2014-Jul-15 09:33N 36°17' E 024°49'9 8.9
2014-Jul-15 08:33N 36°12' E 024°58'9 9.0
2014-Jul-15 07:33N 36°07' E 025°07'9 8.8
2014-Jul-15 06:33N 36°03' E 025°16'9 8.7
2014-Jul-15 05:33N 35°58' E 025°25'9 8.7
2014-Jul-15 04:31N 35°53' E 025°35'9 7.4
2014-Jul-15 03:19N 35°48' E 025°43'14 8.2
2014-Jul-15 01:33N 35°40' E 025°58'  
Track history (hours):
 
Tides and Currents Weather Stations Pressure Air Temp Water Temp Dewpoint Dewpoint Depression Visibility Wind Speed Wind Dir Waves Ship Positions

Nepheli

Last reported at 2014-Jul-23 07:14 UTC. Time now 2014-Oct-23 09:38 UTC.
Position N 36°10' E 025°11'.
Warning: this ship's position is months out of date.

Length 90 m; draft 4.3 m.

Type: Tanker. MMSI: 370679000.

Date/timePositionNaut miles runAvg speedWind from/ knotsBaromVisibWave heightAir tempDewpointWater temp
2014-Jul-23 07:14N 36°10' E 025°11'6 8.7
2014-Jul-23 06:32N 36°12' E 025°04'9 8.9
2014-Jul-23 05:30N 36°16' E 024°54'8 8.8
2014-Jul-23 04:33N 36°20' E 024°45'9 8.5
2014-Jul-23 03:33N 36°24' E 024°36'8 8.6
2014-Jul-23 02:34N 36°29' E 024°27'9 8.9
2014-Jul-23 01:34N 36°34' E 024°18'9 8.0
2014-Jul-23 00:24N 36°42' E 024°11'8 7.9
2014-Jul-22 23:27N 36°49' E 024°08'7 8.2
2014-Jul-22 22:34N 36°56' E 024°05'8 8.2
2014-Jul-22 21:33N 37°03' E 024°02'8 8.0
2014-Jul-22 20:31N 37°11' E 023°58'9 8.9
2014-Jul-22 19:32N 37°20' E 023°55'21 8.9
2014-Jul-22 17:12N 37°38' E 023°43'6 8.7
2014-Jul-22 16:28N 37°44' E 023°40'7 8.3
2014-Jul-22 15:34N 37°51' E 023°36'7 6.9
2014-Jul-22 14:34N 37°57' E 023°33'5 2.1
2014-Jul-22 12:23N 38°02' E 023°32'0 0.0
2014-Jul-22 10:17N 38°02' E 023°32'0 0.0
2014-Jul-22 09:29N 38°02' E 023°32'0 0.0
2014-Jul-22 08:22N 38°02' E 023°32'0 0.0
2014-Jul-22 06:13N 38°02' E 023°32'0 0.0
2014-Jul-22 05:28N 38°02' E 023°32'0 0.0
2014-Jul-22 02:25N 38°02' E 023°32'0 0.0
2014-Jul-22 01:28N 38°02' E 023°32'0 0.0
2014-Jul-21 13:28N 38°02' E 023°32'0 0.1
2014-Jul-21 12:22N 38°02' E 023°32'0 0.0
2014-Jul-21 10:19N 38°02' E 023°32'0 0.0
2014-Jul-21 08:19N 38°02' E 023°32'0 0.0
2014-Jul-21 07:07N 38°02' E 023°32'0 0.0
2014-Jul-19 13:05N 38°02' E 023°32'0 0.1
2014-Jul-19 12:32N 38°02' E 023°32'0 0.1
2014-Jul-19 11:32N 38°02' E 023°32'0 0.0
2014-Jul-19 09:32N 38°02' E 023°32'0 0.0
2014-Jul-19 01:32N 38°02' E 023°32'0 0.0
2014-Jul-19 00:26N 38°02' E 023°32'0 0.0
2014-Jul-18 21:25N 38°02' E 023°32'0 0.0
2014-Jul-18 20:04N 38°02' E 023°32'0 0.0
2014-Jul-18 17:29N 38°02' E 023°32'3 3.4
2014-Jul-18 16:33N 38°02' E 023°36'0 0.0
2014-Jul-18 11:18N 38°02' E 023°36'0 0.0
2014-Jul-18 00:27N 38°02' E 023°36'0 0.0
2014-Jul-17 21:29N 38°02' E 023°36'0 0.0
2014-Jul-17 19:26N 38°02' E 023°36'0 0.0
2014-Jul-17 18:32N 38°02' E 023°36'0 0.0
2014-Jul-17 17:20N 38°02' E 023°36'0 0.0
2014-Jul-17 16:14N 38°02' E 023°36'2 2.4
2014-Jul-17 15:33N 38°02' E 023°34'1 0.9
2014-Jul-17 14:16N 38°02' E 023°32'0 0.0
2014-Jul-17 11:31N 38°02' E 023°32'0 0.0
2014-Jul-17 09:07N 38°02' E 023°32'0 0.0
2014-Jul-17 07:10N 38°02' E 023°32'0 0.0
2014-Jul-17 02:07N 38°02' E 023°32'0 0.0
2014-Jul-16 22:19N 38°02' E 023°32'0 0.0
2014-Jul-16 19:28N 38°02' E 023°32'0 0.0
2014-Jul-16 14:25N 38°02' E 023°32'0 0.0
2014-Jul-16 07:14N 38°02' E 023°32'0 0.0
2014-Jul-16 06:16N 38°02' E 023°32'5 7.1
2014-Jul-16 05:33N 37°57' E 023°35'2 1.9
2014-Jul-16 04:33N 37°55' E 023°33'0 0.0
2014-Jul-16 03:33N 37°55' E 023°33'0 0.0
2014-Jul-16 02:33N 37°55' E 023°33'0 0.0
2014-Jul-16 01:33N 37°55' E 023°33'0 0.0
2014-Jul-16 00:33N 37°55' E 023°33'0 0.0
2014-Jul-15 23:30N 37°55' E 023°33'0 0.1
2014-Jul-15 22:33N 37°55' E 023°33'6 5.8
2014-Jul-15 21:33N 37°52' E 023°39'9 9.4
2014-Jul-15 20:33N 37°43' E 023°44'62 9.8
2014-Jul-15 14:14N 36°45' E 024°11'7 9.9
2014-Jul-15 13:31N 36°39' E 024°14'9 9.1
2014-Jul-15 12:33N 36°32' E 024°22'9 9.0
2014-Jul-15 11:33N 36°27' E 024°31'9 8.9
2014-Jul-15 10:33N 36°23' E 024°40'9 8.7
2014-Jul-15 09:33N 36°17' E 024°49'9 8.9
2014-Jul-15 08:33N 36°12' E 024°58'9 9.0
2014-Jul-15 07:33N 36°07' E 025°07'9 8.8
2014-Jul-15 06:33N 36°03' E 025°16'9 8.7
2014-Jul-15 05:33N 35°58' E 025°25'9 8.7
2014-Jul-15 04:31N 35°53' E 025°35'9 7.4
2014-Jul-15 03:19N 35°48' E 025°43'14 8.2
2014-Jul-15 01:33N 35°40' E 025°58'  

Dump ship's entire track history